createdAt,value
2022-11-04T00:01:11.804Z,12.02
2022-11-04T00:16:22.139Z,12.04
2022-11-04T00:31:38.139Z,12.03
2022-11-04T00:46:35.703Z,12.03
2022-11-04T01:01:26.872Z,11.98
2022-11-04T01:16:17.976Z,11.96
2022-11-04T01:31:08.649Z,11.95
2022-11-04T01:45:59.556Z,11.86
2022-11-04T02:00:51.191Z,11.82
2022-11-04T02:16:12.069Z,11.73
2022-11-04T02:31:11.336Z,11.59
2022-11-04T02:46:05.317Z,11.50
2022-11-04T03:00:57.243Z,11.45
2022-11-04T03:15:51.789Z,11.35
2022-11-04T03:30:45.793Z,11.32
2022-11-04T03:45:37.870Z,11.22
2022-11-04T04:00:28.805Z,11.12
2022-11-04T04:15:19.062Z,11.05
2022-11-04T04:30:11.022Z,11.01
2022-11-04T04:45:04.712Z,10.99
2022-11-04T05:00:00.154Z,10.92
2022-11-04T05:14:51.979Z,10.85
2022-11-04T05:29:43.079Z,10.88
2022-11-04T05:44:34.935Z,10.87
2022-11-04T05:59:26.284Z,10.85
2022-11-04T06:14:18.856Z,10.81
2022-11-04T06:29:08.497Z,10.77
2022-11-04T06:44:00.755Z,10.74
2022-11-04T06:58:51.965Z,10.80
2022-11-04T07:13:43.213Z,10.88
2022-11-04T07:28:35.924Z,11.01
2022-11-04T07:43:28.026Z,11.22
2022-11-04T07:58:20.213Z,11.34
2022-11-04T08:13:12.214Z,11.51
2022-11-04T08:28:04.640Z,11.71
2022-11-04T08:42:56.935Z,11.91
2022-11-04T08:57:49.563Z,12.03
2022-11-04T09:12:41.693Z,12.27
2022-11-04T09:27:34.436Z,12.54
2022-11-04T09:42:36.043Z,12.84
2022-11-04T09:57:33.134Z,13.02
2022-11-04T10:12:39.571Z,13.01
2022-11-04T10:27:37.181Z,13.07
2022-11-04T10:42:29.018Z,13.24
2022-11-04T10:57:26.316Z,13.33
2022-11-04T11:12:49.584Z,13.06
2022-11-04T11:27:14.039Z,13.09
2022-11-04T11:42:08.523Z,13.27
2022-11-04T11:57:24.108Z,13.50
2022-11-04T12:12:21.843Z,13.70
2022-11-04T12:27:29.527Z,14.00
2022-11-04T12:58:10.486Z,13.89
2022-11-04T13:13:07.880Z,14.38
2022-11-04T13:43:36.678Z,14.81
2022-11-04T13:58:35.055Z,14.68
2022-11-04T14:13:30.867Z,14.51
2022-11-04T14:28:21.987Z,14.38
2022-11-04T14:43:18.819Z,14.07
2022-11-04T14:58:25.095Z,13.71
2022-11-04T15:13:21.297Z,13.47
2022-11-04T15:28:17.456Z,13.35
2022-11-04T15:43:13.056Z,13.24
2022-11-04T15:58:05.396Z,13.11
2022-11-04T16:12:59.825Z,13.04
2022-11-04T16:27:54.370Z,13.01
2022-11-04T16:42:46.503Z,12.94
2022-11-04T16:57:37.749Z,12.88
2022-11-04T17:12:28.799Z,12.84
2022-11-04T17:27:20.342Z,12.75
2022-11-04T17:42:30.042Z,12.59
2022-11-04T17:57:27.250Z,12.47
2022-11-04T18:12:41.887Z,12.36
2022-11-04T18:27:34.641Z,12.34
2022-11-04T18:42:26.256Z,12.35
2022-11-04T18:57:17.527Z,12.33
2022-11-04T19:12:27.815Z,12.29
2022-11-04T19:27:25.354Z,12.22
2022-11-04T19:42:35.222Z,12.10
2022-11-04T19:57:32.733Z,12.03
2022-11-04T20:12:42.618Z,11.92
2022-11-04T20:27:40.113Z,11.80
2022-11-04T20:42:31.906Z,11.78
2022-11-04T20:57:23.222Z,11.60
2022-11-04T21:12:14.364Z,11.52
2022-11-04T21:27:05.696Z,11.40
2022-11-04T21:41:57.387Z,11.34
2022-11-04T21:56:49.361Z,11.29
2022-11-04T22:11:40.836Z,11.29
2022-11-04T22:26:31.425Z,11.24
2022-11-04T22:41:22.574Z,11.21
2022-11-04T22:56:14.060Z,11.20
2022-11-04T23:11:23.544Z,11.08
2022-11-04T23:26:21.344Z,11.08
2022-11-04T23:41:28.944Z,11.04
2022-11-04T23:56:45.910Z,11.02
